Terminal Aerodrome Forecast
Issued by NWS Jackson, MS

Home | Current Version | Previous Version | Text Only | Print | Product List | Glossary On
Versions: 1 2 3 4 5 6 7 8 9 10 11 12 13 14 15 16 17 18 19 20
000
FTUS44 KJAN 232300 RRA
TAFMEI
TAF
KMEI 232348Z 2400/2424 18004KT P6SM FEW035 SCT250
     FM240330 00000KT 6SM BR SCT100 BKN250
     FM240700 00000KT 3SM BR FEW100 SCT250
     FM241400 26004KT P6SM FEW025 SCT250
     FM241800 31005KT P6SM VCTS SCT030 BKN050CB=

USA.gov is the U.S. government's official web portal to all federal, state and local government web resources and services.